OIHH  Hamadan Airport

Add Bookmark

Hamadan, Iran

Status IATA
Operational HDM
Latitude Longitude
34° 52' 9" N 48° 33' 9" E
34.869202 48.552502
Local (DST + 5) UTC (GMT + 4)
Jul 25, 2014 09:46 Jul 25, 2014 05:16
Sunrise-Sunset Local UTC
Begin Civil Twilight 05:50 01:20
Sunrise 06:19 01:49
Sunset 08:25 15:55
End Civil Twilight 08:53 16:23

Current Weather

METAR Observed VFR
OIHH 250351Z 00000KT CAVOK 24/05 Q1015 Fri, Jul 25, 2014 @ 03:51 UTC
(1 Hour, 25 Minutes ago)
Visual Flight Rules

Decoded METAR

Wind Visibility Clouds Conditions
Calm 10 km or more
  • Clear skies
  • No significant weather
Temperatures Readings Precipitation
Current Temp 24°C (75°F)
Dewpoint 5°C (41°F)
Humidity 29%
Altimeter 29.97"Hg
Sea Level Pressure 1015mb
Field Elevation 5764.44'
None Recorded

Additional weather within a 92.6km radius of OIHH

Map ICAO Location
OIHM 69.5km S (160°)

24 Hour Weather History

Loading
-

24 Hour Weather Graphs

Loading
-

CheckWX.com is intended as a tool to help pilots better visualize weather data. It is not intended as a substitute for an official weather briefing obtained from a Flight Service Station. CheckWX.com does not meet the FAA requirements for an official pre-flight weather briefing. Therefore, it's important that pilots still call and obtain an official FSS pre-flight weather briefing.